createdAt,value
2022-07-29T00:01:44.740Z,96259.69
2022-07-29T00:04:13.621Z,96249.25
2022-07-29T00:06:42.349Z,96254.75
2022-07-29T00:09:10.293Z,96249.97
2022-07-29T00:11:38.398Z,96245.69
2022-07-29T00:14:06.681Z,96250.06
2022-07-29T00:16:34.697Z,96245.31
2022-07-29T00:19:04.252Z,96256.94
2022-07-29T00:21:32.236Z,96257.91
2022-07-29T00:24:00.166Z,96253.84
2022-07-29T00:26:32.563Z,96255.97
2022-07-29T00:29:31.227Z,96259.28
2022-07-29T00:31:49.111Z,96252.34
2022-07-29T00:34:36.216Z,96255.41
2022-07-29T00:37:04.630Z,96253.56
2022-07-29T00:39:32.570Z,96240.88
2022-07-29T00:42:00.555Z,96240.44
2022-07-29T00:44:28.517Z,96245.53
2022-07-29T00:46:56.563Z,96235.47
2022-07-29T00:49:26.088Z,96238.97
2022-07-29T00:51:54.414Z,96230.06
2022-07-29T00:54:22.785Z,96226.84
2022-07-29T00:56:51.449Z,96234.75
2022-07-29T00:59:19.494Z,96233.72
2022-07-29T01:01:47.528Z,96231.03
2022-07-29T01:04:15.986Z,96225.59
2022-07-29T01:06:46.622Z,96229.13
2022-07-29T01:09:15.429Z,96223.84
2022-07-29T01:11:44.161Z,96220.34
2022-07-29T01:14:12.745Z,96230.41
2022-07-29T01:16:47.362Z,96223.22
2022-07-29T01:19:36.377Z,96225.94
2022-07-29T01:22:18.855Z,96221.63
2022-07-29T01:25:08.414Z,96224.06
2022-07-29T01:27:46.210Z,96225.31
2022-07-29T01:30:15.794Z,96221.09
2022-07-29T01:32:45.214Z,96226.00
2022-07-29T01:35:19.625Z,96227.09
2022-07-29T01:37:52.722Z,96146.22
2022-07-29T01:40:22.623Z,96239.56
2022-07-29T01:42:52.808Z,96243.22
2022-07-29T01:45:25.524Z,96245.00
2022-07-29T01:47:59.231Z,96236.81
2022-07-29T01:50:33.441Z,96243.88
2022-07-29T01:53:03.489Z,96233.97
2022-07-29T01:55:34.441Z,96238.28
2022-07-29T01:58:03.409Z,96241.38
2022-07-29T02:00:33.642Z,96243.25
2022-07-29T02:03:04.773Z,96236.88
2022-07-29T02:05:33.067Z,96229.16
2022-07-29T02:08:01.701Z,96238.25
2022-07-29T02:10:31.643Z,96239.19
2022-07-29T02:13:00.548Z,96230.75
2022-07-29T02:15:31.004Z,96234.00
2022-07-29T02:18:02.623Z,96235.50
2022-07-29T02:20:32.157Z,96241.72
2022-07-29T02:23:01.339Z,96242.03
2022-07-29T02:25:36.949Z,96239.56
2022-07-29T02:28:06.489Z,96233.25
2022-07-29T02:30:35.032Z,96233.78
2022-07-29T02:33:05.074Z,96209.63
2022-07-29T02:35:34.537Z,96236.75
2022-07-29T02:38:21.895Z,96237.59
2022-07-29T02:40:50.769Z,96225.34
2022-07-29T02:43:20.001Z,96238.63
2022-07-29T02:45:51.845Z,96228.34
2022-07-29T02:48:25.894Z,96228.34
2022-07-29T02:51:08.443Z,96223.69
2022-07-29T02:53:37.448Z,96177.69
2022-07-29T02:56:09.093Z,96229.50
2022-07-29T02:58:40.905Z,96224.63
2022-07-29T03:01:16.707Z,96222.31
2022-07-29T03:03:49.641Z,96219.31
2022-07-29T03:06:37.423Z,96234.38
2022-07-29T03:09:12.269Z,96235.38
2022-07-29T03:11:49.552Z,96243.09
2022-07-29T03:14:20.588Z,96238.63
2022-07-29T03:16:49.622Z,96236.06
2022-07-29T03:19:19.148Z,96240.38
2022-07-29T03:21:47.128Z,96241.88
2022-07-29T03:24:30.183Z,96248.63
2022-07-29T03:26:58.873Z,96245.97
2022-07-29T03:29:33.993Z,96249.56
2022-07-29T03:32:04.403Z,96240.03
2022-07-29T03:34:39.218Z,96236.09
2022-07-29T03:37:07.999Z,96242.03
2022-07-29T03:39:41.544Z,96235.75
2022-07-29T03:42:10.894Z,96227.22
2022-07-29T03:44:39.558Z,96235.28
2022-07-29T03:47:08.732Z,96231.66
2022-07-29T03:49:38.932Z,96237.59
2022-07-29T03:52:07.205Z,96218.19
2022-07-29T03:54:35.607Z,96237.84
2022-07-29T03:57:04.808Z,96235.00
2022-07-29T03:59:33.950Z,96236.19
2022-07-29T04:02:02.504Z,96232.56
2022-07-29T04:04:30.485Z,96255.78
2022-07-29T04:06:59.842Z,96252.53
2022-07-29T04:09:27.801Z,96246.47
2022-07-29T04:12:03.511Z,96258.28
2022-07-29T04:14:33.194Z,96258.97
2022-07-29T04:17:01.359Z,96251.75
2022-07-29T04:19:29.562Z,96259.78
2022-07-29T04:21:59.015Z,96260.03
2022-07-29T04:24:27.014Z,96261.44
2022-07-29T04:26:55.307Z,96248.38
2022-07-29T04:29:23.267Z,96258.88
2022-07-29T04:31:51.191Z,96263.44
2022-07-29T04:34:19.924Z,96253.50
2022-07-29T04:36:48.157Z,96265.31
2022-07-29T04:39:22.798Z,96276.63
2022-07-29T04:41:52.538Z,96271.28
2022-07-29T04:44:28.379Z,96267.84
2022-07-29T04:46:57.456Z,96274.47
2022-07-29T04:49:25.701Z,96273.34
2022-07-29T04:51:53.722Z,96273.16
2022-07-29T04:54:23.100Z,96267.56
2022-07-29T04:56:51.057Z,96281.81
2022-07-29T04:59:19.011Z,96278.44
2022-07-29T05:01:47.089Z,96282.56
2022-07-29T05:04:15.178Z,96286.38
2022-07-29T05:06:43.418Z,96286.25
2022-07-29T05:09:11.373Z,96287.34
2022-07-29T05:11:40.698Z,96286.50
2022-07-29T05:14:08.691Z,96283.72
2022-07-29T05:16:36.605Z,96284.13
2022-07-29T05:19:04.711Z,96283.34
2022-07-29T05:21:32.648Z,96281.59
2022-07-29T05:24:00.589Z,96286.72
2022-07-29T05:26:28.529Z,96288.97
2022-07-29T05:28:58.068Z,96271.22
2022-07-29T05:31:26.137Z,96283.31
2022-07-29T05:33:54.113Z,96271.97
2022-07-29T05:36:22.100Z,96277.38
2022-07-29T05:38:50.062Z,96285.59
2022-07-29T05:41:18.035Z,96283.22
2022-07-29T05:43:46.123Z,96284.81
2022-07-29T05:46:16.241Z,96293.78
2022-07-29T05:48:44.387Z,96296.00
2022-07-29T05:51:13.046Z,96279.09
2022-07-29T05:53:41.105Z,96285.56
2022-07-29T05:56:09.364Z,96265.44
2022-07-29T05:58:37.776Z,96286.72
2022-07-29T06:01:05.801Z,96288.50
2022-07-29T06:03:35.598Z,96291.00
2022-07-29T06:06:03.559Z,96293.16
2022-07-29T06:08:31.541Z,96295.59
2022-07-29T06:10:59.560Z,96295.88
2022-07-29T06:13:27.573Z,96293.22
2022-07-29T06:15:55.638Z,96300.72
2022-07-29T06:18:24.939Z,96303.88
2022-07-29T06:20:54.785Z,96300.78
2022-07-29T06:23:23.003Z,96301.88
2022-07-29T06:25:50.958Z,96299.66
2022-07-29T06:28:18.976Z,96296.94
2022-07-29T06:30:47.063Z,96290.09
2022-07-29T06:33:18.867Z,96300.66
2022-07-29T06:35:53.655Z,96300.00
2022-07-29T06:38:33.888Z,96303.72
2022-07-29T06:41:03.282Z,96306.31
2022-07-29T06:43:34.946Z,96310.13
2022-07-29T06:46:03.850Z,96306.66
2022-07-29T06:48:31.914Z,96318.88
2022-07-29T06:51:00.055Z,96312.19
2022-07-29T06:53:29.697Z,96320.84
2022-07-29T06:55:59.157Z,96315.53
2022-07-29T06:58:27.658Z,96328.34
2022-07-29T07:00:55.720Z,96326.88
2022-07-29T07:03:24.050Z,96313.41
2022-07-29T07:05:52.164Z,96316.66
2022-07-29T07:08:20.478Z,96319.69
2022-07-29T07:10:49.936Z,96320.34
2022-07-29T07:13:18.334Z,96303.53
2022-07-29T07:15:46.503Z,96301.25
2022-07-29T07:18:14.507Z,96293.38
2022-07-29T07:20:42.498Z,96297.13
2022-07-29T07:23:10.688Z,96287.84
2022-07-29T07:25:38.909Z,96287.53
2022-07-29T07:28:08.444Z,96281.81
2022-07-29T07:30:36.421Z,96280.53
2022-07-29T07:33:04.537Z,96283.09
2022-07-29T07:35:32.622Z,96294.28
2022-07-29T07:38:00.662Z,96294.25
2022-07-29T07:40:28.740Z,96266.00
2022-07-29T07:42:56.719Z,96286.84
2022-07-29T07:45:26.180Z,96287.25
2022-07-29T07:47:54.326Z,96293.63
2022-07-29T07:50:22.342Z,96292.13
2022-07-29T07:52:52.167Z,96277.72
2022-07-29T07:55:20.708Z,96301.13
2022-07-29T07:57:49.523Z,96305.34
2022-07-29T08:00:18.805Z,96318.94
2022-07-29T08:02:48.173Z,96324.66
2022-07-29T08:05:18.194Z,96336.75
2022-07-29T08:07:47.748Z,96342.94
2022-07-29T08:10:16.155Z,96344.47
2022-07-29T08:12:45.858Z,96353.72
2022-07-29T08:15:13.788Z,96346.56
2022-07-29T08:17:42.558Z,96347.19
2022-07-29T08:20:13.156Z,96325.75
2022-07-29T08:22:41.174Z,96339.41
2022-07-29T08:25:09.512Z,96346.91
2022-07-29T08:27:44.598Z,96354.63
2022-07-29T08:30:13.161Z,96346.97
2022-07-29T08:32:53.634Z,96344.59
2022-07-29T08:35:25.386Z,96343.63
2022-07-29T08:37:53.779Z,96334.06
2022-07-29T08:40:30.766Z,96343.53
2022-07-29T08:43:00.761Z,96328.38
2022-07-29T08:45:30.511Z,96339.03
2022-07-29T08:47:58.897Z,96346.38
2022-07-29T08:50:28.302Z,96336.50
2022-07-29T08:52:59.735Z,96335.19
2022-07-29T08:55:28.364Z,96345.47
2022-07-29T08:57:57.488Z,96360.41
2022-07-29T09:00:26.837Z,96359.13
2022-07-29T09:02:59.686Z,96362.75
2022-07-29T09:05:30.327Z,96361.19
2022-07-29T09:07:58.559Z,96352.47
2022-07-29T09:10:26.544Z,96365.63
2022-07-29T09:12:54.546Z,96352.16
2022-07-29T09:15:22.682Z,96365.94
2022-07-29T09:17:51.680Z,96368.88
2022-07-29T09:20:21.111Z,96368.09
2022-07-29T09:22:51.878Z,96367.63
2022-07-29T09:25:34.503Z,96367.94
2022-07-29T09:28:08.891Z,96367.91
2022-07-29T09:30:37.385Z,96362.22
2022-07-29T09:33:05.976Z,96362.88
2022-07-29T09:35:34.102Z,96356.56
2022-07-29T09:38:13.633Z,96349.44
2022-07-29T09:40:42.008Z,96363.72
2022-07-29T09:43:13.688Z,96361.44
2022-07-29T09:45:41.930Z,96349.63
2022-07-29T09:48:18.951Z,96358.53
2022-07-29T09:50:50.542Z,96350.41
2022-07-29T09:53:34.030Z,96345.56
2022-07-29T09:56:02.444Z,96338.38
2022-07-29T09:58:30.406Z,96336.03
2022-07-29T10:00:59.000Z,96338.78
2022-07-29T10:03:27.089Z,96330.00
2022-07-29T10:06:09.313Z,96341.28
2022-07-29T10:08:39.220Z,96339.09
2022-07-29T10:11:15.044Z,96342.25
2022-07-29T10:13:44.042Z,96346.00
2022-07-29T10:16:12.323Z,96330.72
2022-07-29T10:18:42.642Z,96332.22
2022-07-29T10:21:11.150Z,96337.88
2022-07-29T10:23:52.001Z,96330.56
2022-07-29T10:26:20.033Z,96332.88
2022-07-29T10:28:48.057Z,96331.84
2022-07-29T10:31:24.503Z,96329.06
2022-07-29T10:34:02.119Z,96331.59
2022-07-29T10:36:41.154Z,96319.69
2022-07-29T10:39:22.423Z,96323.41
2022-07-29T10:42:01.611Z,96321.97
2022-07-29T10:44:31.977Z,96317.13
2022-07-29T10:47:00.062Z,96308.03
2022-07-29T10:49:31.149Z,96287.25
2022-07-29T10:52:01.740Z,96296.09
2022-07-29T10:54:46.137Z,96295.50
2022-07-29T10:57:54.270Z,96296.94
2022-07-29T11:00:28.937Z,96292.19
2022-07-29T11:02:59.195Z,96293.03
2022-07-29T11:05:40.077Z,96291.97
2022-07-29T11:08:26.098Z,96285.88
2022-07-29T11:11:35.285Z,96281.13
2022-07-29T11:14:03.253Z,96289.31
2022-07-29T11:17:01.733Z,96288.44
2022-07-29T11:19:30.944Z,96297.66
2022-07-29T11:21:59.978Z,96282.88
2022-07-29T11:24:30.099Z,96293.97
2022-07-29T11:27:20.983Z,96295.56
2022-07-29T11:29:56.681Z,96288.56
2022-07-29T11:32:29.121Z,96287.03
2022-07-29T11:35:27.719Z,96295.41
2022-07-29T11:38:27.996Z,96297.00
2022-07-29T11:41:27.306Z,96292.53
2022-07-29T11:43:58.439Z,96295.56
2022-07-29T11:46:50.196Z,96270.81
2022-07-29T11:52:10.986Z,96279.53
2022-07-29T11:54:57.083Z,96290.84
2022-07-29T11:57:36.592Z,96265.84
2022-07-29T12:00:12.690Z,96278.19
2022-07-29T12:02:48.330Z,96273.91
2022-07-29T12:05:36.073Z,96288.72
2022-07-29T12:08:12.460Z,96287.06
2022-07-29T12:10:43.059Z,96278.53
2022-07-29T12:13:11.926Z,96277.47
2022-07-29T12:15:47.241Z,96272.47
2022-07-29T12:18:18.334Z,96274.72
2022-07-29T12:20:46.824Z,96232.38
2022-07-29T12:23:16.225Z,96282.09
2022-07-29T12:25:46.002Z,96281.91
2022-07-29T12:28:26.400Z,96281.06
2022-07-29T12:30:56.450Z,96270.31
2022-07-29T12:33:26.151Z,96279.16
2022-07-29T12:36:07.020Z,96277.63
2022-07-29T12:38:36.950Z,96270.75
2022-07-29T12:41:05.418Z,96270.38
2022-07-29T12:43:33.500Z,96281.00
2022-07-29T12:46:14.672Z,96266.66
2022-07-29T12:48:43.729Z,96280.00
2022-07-29T12:51:13.317Z,96272.06
2022-07-29T12:53:41.506Z,96274.50
2022-07-29T12:56:41.777Z,96283.63
2022-07-29T12:59:14.496Z,96277.72
2022-07-29T13:01:44.027Z,96272.28
2022-07-29T13:04:12.158Z,96277.38
2022-07-29T13:06:41.421Z,96276.56
2022-07-29T13:09:11.960Z,96269.28
2022-07-29T13:11:46.541Z,96261.69
2022-07-29T13:14:32.558Z,96262.53
2022-07-29T13:17:06.895Z,96264.31
2022-07-29T13:19:37.408Z,96257.88
2022-07-29T13:22:06.100Z,96262.00
2022-07-29T13:24:34.087Z,96261.09
2022-07-29T13:27:02.161Z,96264.97
2022-07-29T13:29:34.150Z,96255.44
2022-07-29T13:32:02.168Z,96260.19
2022-07-29T13:34:32.088Z,96265.34
2022-07-29T13:37:00.006Z,96264.25
2022-07-29T13:39:28.077Z,96264.16
2022-07-29T13:41:56.441Z,96271.47
2022-07-29T13:44:25.594Z,96261.69
2022-07-29T13:46:53.657Z,96256.13
2022-07-29T13:49:21.694Z,96258.38
2022-07-29T13:51:51.207Z,96239.53
2022-07-29T13:54:19.328Z,96239.44
2022-07-29T13:56:47.432Z,96231.75
2022-07-29T13:59:15.432Z,96236.22
2022-07-29T14:01:43.590Z,96243.25
2022-07-29T14:04:13.790Z,96240.28
2022-07-29T14:06:41.884Z,96240.88
2022-07-29T14:09:11.208Z,96235.63
2022-07-29T14:11:39.743Z,96235.38
2022-07-29T14:14:07.696Z,96221.91
2022-07-29T14:16:40.431Z,96227.53
2022-07-29T14:19:10.982Z,96220.84
2022-07-29T14:21:40.252Z,96229.84
2022-07-29T14:24:20.791Z,96205.78
2022-07-29T14:26:52.501Z,96219.25
2022-07-29T14:29:20.453Z,96190.81
2022-07-29T14:31:48.428Z,96220.44
2022-07-29T14:34:17.020Z,96217.00
2022-07-29T14:36:45.007Z,96216.88
2022-07-29T14:39:13.024Z,96220.25
2022-07-29T14:41:41.061Z,96209.50
2022-07-29T14:44:10.406Z,96216.22
2022-07-29T14:46:38.373Z,96215.69
2022-07-29T14:49:07.491Z,96218.25
2022-07-29T14:51:38.179Z,96212.41
2022-07-29T14:54:08.353Z,96222.09
2022-07-29T14:56:37.540Z,96215.75
2022-07-29T14:59:06.862Z,96212.13
2022-07-29T15:01:37.732Z,96216.78
2022-07-29T15:04:06.253Z,96218.03
2022-07-29T15:06:35.013Z,96216.66
2022-07-29T15:09:03.053Z,96219.69
2022-07-29T15:11:31.348Z,96214.88
2022-07-29T15:14:05.887Z,96207.81
2022-07-29T15:16:34.007Z,96207.00
2022-07-29T15:19:03.486Z,96208.94
2022-07-29T15:21:31.470Z,96205.50
2022-07-29T15:23:59.410Z,96198.53
2022-07-29T15:26:27.418Z,96198.31
2022-07-29T15:28:56.534Z,96191.66
2022-07-29T15:31:24.580Z,96195.69
2022-07-29T15:33:57.579Z,96193.31
2022-07-29T15:36:50.678Z,96184.22
2022-07-29T15:39:15.992Z,96189.47
2022-07-29T15:41:43.966Z,96169.47
2022-07-29T15:44:11.893Z,96175.97
2022-07-29T15:46:57.771Z,96179.59
2022-07-29T15:49:48.148Z,96178.38
2022-07-29T15:52:26.042Z,96173.53
2022-07-29T15:54:55.372Z,96174.94
2022-07-29T15:57:23.848Z,96164.69
2022-07-29T15:59:52.218Z,96163.47
2022-07-29T16:02:20.653Z,96159.63
2022-07-29T16:04:48.687Z,96146.53
2022-07-29T16:07:18.340Z,96155.00
2022-07-29T16:09:51.019Z,96147.94
2022-07-29T16:12:20.971Z,96152.09
2022-07-29T16:14:49.611Z,96146.28
2022-07-29T16:17:17.748Z,96112.41
2022-07-29T16:19:45.840Z,96141.66
2022-07-29T16:22:13.976Z,96136.63
2022-07-29T16:24:43.389Z,96133.38
2022-07-29T16:27:11.378Z,96124.75
2022-07-29T16:29:39.654Z,96126.00
2022-07-29T16:32:08.045Z,96130.41
2022-07-29T16:34:36.081Z,96119.53
2022-07-29T16:37:04.613Z,96119.69
2022-07-29T16:39:32.932Z,96120.50
2022-07-29T16:42:04.097Z,96129.56
2022-07-29T16:44:33.461Z,96127.16
2022-07-29T16:47:02.765Z,96130.44
2022-07-29T16:49:31.670Z,96123.56
2022-07-29T16:51:59.676Z,96132.44
2022-07-29T16:54:28.599Z,96136.06
2022-07-29T16:56:56.783Z,96126.41
2022-07-29T16:59:26.440Z,96111.84
2022-07-29T17:01:54.410Z,96123.13
2022-07-29T17:04:22.977Z,96115.84
2022-07-29T17:06:51.000Z,96117.63
2022-07-29T17:09:19.033Z,96111.59
2022-07-29T17:11:53.448Z,96115.00
2022-07-29T17:14:24.035Z,96108.19
2022-07-29T17:17:00.953Z,96108.56
2022-07-29T17:19:31.039Z,96110.94
2022-07-29T17:22:09.381Z,96104.53
2022-07-29T17:24:40.859Z,96103.72
2022-07-29T17:27:09.391Z,96108.34
2022-07-29T17:29:37.412Z,96106.94
2022-07-29T17:32:07.977Z,96094.88
2022-07-29T17:34:36.431Z,96083.69
2022-07-29T17:37:04.753Z,96098.78
2022-07-29T17:39:32.827Z,96096.13
2022-07-29T17:42:00.962Z,96103.97
2022-07-29T17:44:28.950Z,96108.31
2022-07-29T17:46:57.336Z,96080.84
2022-07-29T17:49:27.253Z,96110.69
2022-07-29T17:51:58.948Z,96111.84
2022-07-29T17:54:28.735Z,96112.63
2022-07-29T17:56:57.063Z,96121.22
2022-07-29T17:59:25.285Z,96111.63
2022-07-29T18:01:53.367Z,96117.78
2022-07-29T18:04:23.391Z,96120.97
2022-07-29T18:06:52.857Z,96115.19
2022-07-29T18:09:20.859Z,96108.16
2022-07-29T18:11:48.917Z,96118.81
2022-07-29T18:14:17.047Z,96121.91
2022-07-29T18:16:45.154Z,96120.59
2022-07-29T18:19:13.222Z,96121.41
2022-07-29T18:21:53.940Z,96103.47
2022-07-29T18:24:25.714Z,96116.41
2022-07-29T18:26:53.877Z,96117.28
2022-07-29T18:29:21.990Z,96113.09
2022-07-29T18:31:50.159Z,96052.53
2022-07-29T18:34:18.241Z,96111.28
2022-07-29T18:36:46.796Z,96092.47
2022-07-29T18:39:20.282Z,96108.00
2022-07-29T18:41:51.706Z,96076.38
2022-07-29T18:44:21.858Z,96112.91
2022-07-29T18:46:51.191Z,96109.88
2022-07-29T18:49:19.598Z,96106.59
2022-07-29T18:51:47.714Z,96109.19
2022-07-29T18:54:17.332Z,96118.34
2022-07-29T18:56:45.800Z,96129.06
2022-07-29T18:59:17.005Z,96129.81
2022-07-29T19:01:45.298Z,96102.34
2022-07-29T19:04:13.424Z,96122.78
2022-07-29T19:06:41.582Z,96127.22
2022-07-29T19:09:10.046Z,96125.28
2022-07-29T19:11:38.225Z,96116.09
2022-07-29T19:14:07.080Z,96135.06
2022-07-29T19:16:36.657Z,96130.19
2022-07-29T19:19:05.652Z,96140.50
2022-07-29T19:21:33.629Z,96140.34
2022-07-29T19:24:07.483Z,96152.19
2022-07-29T19:26:42.015Z,96157.41
2022-07-29T19:29:10.123Z,96158.25
2022-07-29T19:31:39.600Z,96166.03
2022-07-29T19:34:08.463Z,96168.44
2022-07-29T19:36:36.588Z,96169.91
2022-07-29T19:39:04.901Z,96171.19
2022-07-29T19:41:32.916Z,96170.03
2022-07-29T19:44:00.913Z,96177.00
2022-07-29T19:46:29.915Z,96178.94
2022-07-29T19:48:59.320Z,96186.84
2022-07-29T19:51:27.328Z,96181.34
2022-07-29T19:53:55.310Z,96182.94
2022-07-29T19:56:26.576Z,96186.81
2022-07-29T19:58:54.949Z,96180.84
2022-07-29T20:01:23.378Z,96183.28
2022-07-29T20:03:51.449Z,96181.97
2022-07-29T20:06:20.875Z,96184.38
2022-07-29T20:08:48.962Z,96181.47
2022-07-29T20:11:17.055Z,96182.91
2022-07-29T20:13:44.998Z,96172.84
2022-07-29T20:16:12.956Z,96169.94
2022-07-29T20:18:40.897Z,96164.63
2022-07-29T20:21:08.854Z,96171.06
2022-07-29T20:23:38.147Z,96177.06
2022-07-29T20:26:09.495Z,96173.53
2022-07-29T20:28:40.148Z,96184.59
2022-07-29T20:31:08.784Z,96180.59
2022-07-29T20:33:36.800Z,96199.09
2022-07-29T20:36:05.419Z,96193.03
2022-07-29T20:38:33.344Z,96195.31
2022-07-29T20:41:02.668Z,96191.09
2022-07-29T20:43:30.723Z,96184.75
2022-07-29T20:46:06.964Z,96183.72
2022-07-29T20:48:34.943Z,96181.56
2022-07-29T20:51:02.904Z,96171.69
2022-07-29T20:53:30.881Z,96164.53
2022-07-29T20:55:58.789Z,96151.81
2022-07-29T20:58:28.150Z,96165.53
2022-07-29T21:00:56.375Z,96161.28
2022-07-29T21:03:24.270Z,96166.84
2022-07-29T21:05:52.329Z,96166.84
2022-07-29T21:08:20.390Z,96181.88
2022-07-29T21:10:48.375Z,96168.59
2022-07-29T21:13:16.658Z,96188.69
2022-07-29T21:15:49.245Z,96180.41
2022-07-29T21:18:27.278Z,96139.19
2022-07-29T21:20:55.290Z,96159.59
2022-07-29T21:23:23.224Z,96166.13
2022-07-29T21:25:51.164Z,96160.28
2022-07-29T21:28:27.292Z,96162.94
2022-07-29T21:30:57.319Z,96164.16
2022-07-29T21:33:25.487Z,96138.69
2022-07-29T21:38:41.650Z,96153.66
2022-07-29T21:41:10.852Z,96158.44
2022-07-29T21:43:41.847Z,96154.81
2022-07-29T21:46:11.497Z,96158.13
2022-07-29T21:48:44.152Z,96176.97
2022-07-29T21:51:12.643Z,96208.94
2022-07-29T21:53:40.578Z,96240.47
2022-07-29T21:56:14.731Z,96245.00
2022-07-29T21:58:43.387Z,96241.47
2022-07-29T22:01:12.903Z,96245.47
2022-07-29T22:03:40.912Z,96254.63
2022-07-29T22:06:08.935Z,96262.81
2022-07-29T22:08:40.223Z,96269.31
2022-07-29T22:11:08.247Z,96274.66
2022-07-29T22:13:36.974Z,96253.25
2022-07-29T22:16:05.354Z,96274.19
2022-07-29T22:18:34.766Z,96272.06
2022-07-29T22:21:02.852Z,96272.06
2022-07-29T22:23:30.823Z,96271.94
2022-07-29T22:25:58.760Z,96280.19
2022-07-29T22:28:26.687Z,96269.97
2022-07-29T22:30:54.668Z,96262.34
2022-07-29T22:33:23.768Z,96291.19
2022-07-29T22:35:53.076Z,96291.38
2022-07-29T22:38:21.029Z,96299.16
2022-07-29T22:40:51.147Z,96294.78
2022-07-29T22:43:19.503Z,96298.97
2022-07-29T22:45:47.506Z,96303.03
2022-07-29T22:48:15.527Z,96298.53
2022-07-29T22:50:43.474Z,96296.25
2022-07-29T22:53:12.831Z,96290.25
2022-07-29T22:55:40.819Z,96298.53
2022-07-29T22:58:08.786Z,96290.41
2022-07-29T23:00:36.831Z,96286.19
2022-07-29T23:03:04.799Z,96270.25
2022-07-29T23:05:32.761Z,96267.53
2022-07-29T23:08:00.889Z,96269.78
2022-07-29T23:10:30.404Z,96274.31
2022-07-29T23:12:58.365Z,96271.56
2022-07-29T23:15:26.681Z,96276.56
2022-07-29T23:17:54.820Z,96257.38
2022-07-29T23:20:22.709Z,96277.16
2022-07-29T23:22:50.650Z,96275.22
2022-07-29T23:25:18.604Z,96261.41
2022-07-29T23:27:47.911Z,96276.81
2022-07-29T23:30:15.806Z,96263.66
2022-07-29T23:32:43.785Z,96255.13
2022-07-29T23:35:11.680Z,96264.31
2022-07-29T23:37:39.827Z,96246.47
2022-07-29T23:40:14.010Z,96256.41
2022-07-29T23:42:43.233Z,96255.00
2022-07-29T23:45:13.935Z,96248.59
2022-07-29T23:47:42.681Z,96223.72
2022-07-29T23:50:12.475Z,96243.19
2022-07-29T23:52:41.742Z,96248.94
2022-07-29T23:55:37.594Z,96245.13
2022-07-29T23:57:57.842Z,96234.91
